sensor_id;sensor_type;location;lat;lon;timestamp;pressure;altitude;pressure_sealevel;temperature;humidity
60642;BME280;46837;52.446;-1.930;2023-05-24T00:00:09;101285.50;;;13.33;58.89
60642;BME280;46837;52.446;-1.930;2023-05-24T00:01:09;101283.16;;;13.31;58.98
60642;BME280;46837;52.446;-1.930;2023-05-24T00:02:09;101286.97;;;13.33;58.93
60642;BME280;46837;52.446;-1.930;2023-05-24T00:03:09;101284.29;;;13.29;59.04
60642;BME280;46837;52.446;-1.930;2023-05-24T00:04:09;101285.01;;;13.29;58.99
60642;BME280;46837;52.446;-1.930;2023-05-24T00:05:09;101283.53;;;13.29;59.01
60642;BME280;46837;52.446;-1.930;2023-05-24T00:06:09;101285.99;;;13.28;59.03
60642;BME280;46837;52.446;-1.930;2023-05-24T00:07:09;101281.39;;;13.31;58.95
60642;BME280;46837;52.446;-1.930;2023-05-24T00:08:09;101278.38;;;13.29;58.97
60642;BME280;46837;52.446;-1.930;2023-05-24T00:09:09;101277.89;;;13.27;59.20
60642;BME280;46837;52.446;-1.930;2023-05-24T00:10:09;101277.44;;;13.25;59.20
60642;BME280;46837;52.446;-1.930;2023-05-24T00:11:09;101276.26;;;13.28;59.11
60642;BME280;46837;52.446;-1.930;2023-05-24T00:12:09;101278.94;;;13.25;59.17
60642;BME280;46837;52.446;-1.930;2023-05-24T00:13:09;101275.62;;;13.29;59.08
60642;BME280;46837;52.446;-1.930;2023-05-24T00:14:09;101275.56;;;13.29;59.03
60642;BME280;46837;52.446;-1.930;2023-05-24T00:15:09;101277.75;;;13.28;59.06
60642;BME280;46837;52.446;-1.930;2023-05-24T00:16:09;101279.64;;;13.30;59.06
60642;BME280;46837;52.446;-1.930;2023-05-24T00:17:09;101278.65;;;13.30;59.07
60642;BME280;46837;52.446;-1.930;2023-05-24T00:18:09;101277.51;;;13.31;59.03
60642;BME280;46837;52.446;-1.930;2023-05-24T00:19:09;101279.17;;;13.28;59.09
60642;BME280;46837;52.446;-1.930;2023-05-24T00:20:09;101278.96;;;13.24;59.11
60642;BME280;46837;52.446;-1.930;2023-05-24T00:21:09;101281.29;;;13.23;59.15
60642;BME280;46837;52.446;-1.930;2023-05-24T00:22:09;101279.71;;;13.23;59.18
60642;BME280;46837;52.446;-1.930;2023-05-24T00:23:09;101279.12;;;13.19;59.25
60642;BME280;46837;52.446;-1.930;2023-05-24T00:24:09;101278.75;;;13.21;59.22
60642;BME280;46837;52.446;-1.930;2023-05-24T00:25:09;101282.98;;;13.21;59.22
60642;BME280;46837;52.446;-1.930;2023-05-24T00:26:09;101281.78;;;13.23;59.20
60642;BME280;46837;52.446;-1.930;2023-05-24T00:27:09;101280.19;;;13.22;59.23
60642;BME280;46837;52.446;-1.930;2023-05-24T00:28:09;101282.60;;;13.24;59.16
60642;BME280;46837;52.446;-1.930;2023-05-24T00:29:09;101281.94;;;13.24;59.16
60642;BME280;46837;52.446;-1.930;2023-05-24T00:30:09;101283.78;;;13.20;59.24
60642;BME280;46837;52.446;-1.930;2023-05-24T00:31:10;101284.54;;;13.18;59.29
60642;BME280;46837;52.446;-1.930;2023-05-24T00:32:09;101286.28;;;13.17;59.30
60642;BME280;46837;52.446;-1.930;2023-05-24T00:33:09;101282.47;;;13.14;59.29
60642;BME280;46837;52.446;-1.930;2023-05-24T00:34:09;101281.04;;;13.08;59.46
60642;BME280;46837;52.446;-1.930;2023-05-24T00:35:09;101282.21;;;13.11;59.36
60642;BME280;46837;52.446;-1.930;2023-05-24T00:36:09;101279.34;;;13.10;59.32
60642;BME280;46837;52.446;-1.930;2023-05-24T00:37:09;101281.48;;;13.10;59.43
60642;BME280;46837;52.446;-1.930;2023-05-24T00:38:09;101279.28;;;13.04;59.57
60642;BME280;46837;52.446;-1.930;2023-05-24T00:39:09;101276.86;;;13.03;59.56
60642;BME280;46837;52.446;-1.930;2023-05-24T00:40:09;101277.00;;;13.05;59.51
60642;BME280;46837;52.446;-1.930;2023-05-24T00:41:09;101273.10;;;13.06;59.45
60642;BME280;46837;52.446;-1.930;2023-05-24T00:42:09;101272.18;;;13.07;59.46
60642;BME280;46837;52.446;-1.930;2023-05-24T00:43:09;101267.50;;;13.05;59.50
60642;BME280;46837;52.446;-1.930;2023-05-24T00:44:09;101268.36;;;13.04;59.56
60642;BME280;46837;52.446;-1.930;2023-05-24T00:45:09;101261.30;;;13.00;59.61
60642;BME280;46837;52.446;-1.930;2023-05-24T00:46:17;101261.18;;;12.98;59.73
60642;BME280;46837;52.446;-1.930;2023-05-24T00:47:09;101260.63;;;12.99;59.71
60642;BME280;46837;52.446;-1.930;2023-05-24T00:48:09;101261.29;;;12.98;59.73
60642;BME280;46837;52.446;-1.930;2023-05-24T00:49:09;101261.26;;;12.96;59.79
60642;BME280;46837;52.446;-1.930;2023-05-24T00:50:09;101259.37;;;12.98;59.72
60642;BME280;46837;52.446;-1.930;2023-05-24T00:51:09;101256.03;;;12.98;59.74
60642;BME280;46837;52.446;-1.930;2023-05-24T00:52:09;101249.92;;;12.99;59.75
60642;BME280;46837;52.446;-1.930;2023-05-24T00:53:09;101247.68;;;12.98;59.79
60642;BME280;46837;52.446;-1.930;2023-05-24T00:54:09;101247.29;;;12.98;59.82
60642;BME280;46837;52.446;-1.930;2023-05-24T00:55:09;101244.35;;;12.96;59.98
60642;BME280;46837;52.446;-1.930;2023-05-24T00:56:09;101245.30;;;12.97;60.01
60642;BME280;46837;52.446;-1.930;2023-05-24T00:57:09;101242.39;;;12.97;59.94
60642;BME280;46837;52.446;-1.930;2023-05-24T00:58:09;101246.96;;;12.93;60.03
60642;BME280;46837;52.446;-1.930;2023-05-24T00:59:09;101248.75;;;12.92;60.15
60642;BME280;46837;52.446;-1.930;2023-05-24T01:00:09;101248.36;;;12.90;60.20
60642;BME280;46837;52.446;-1.930;2023-05-24T01:01:09;101250.23;;;12.91;60.21
60642;BME280;46837;52.446;-1.930;2023-05-24T01:02:09;101250.34;;;12.90;60.20
60642;BME280;46837;52.446;-1.930;2023-05-24T01:03:09;101253.14;;;12.92;60.21
60642;BME280;46837;52.446;-1.930;2023-05-24T01:04:09;101253.31;;;12.92;60.24
60642;BME280;46837;52.446;-1.930;2023-05-24T01:05:09;101255.01;;;12.91;60.24
60642;BME280;46837;52.446;-1.930;2023-05-24T01:06:09;101254.31;;;12.88;60.30
60642;BME280;46837;52.446;-1.930;2023-05-24T01:10:16;101257.97;;;12.86;60.45
60642;BME280;46837;52.446;-1.930;2023-05-24T01:11:20;101255.41;;;12.89;60.38
60642;BME280;46837;52.446;-1.930;2023-05-24T01:12:24;101255.83;;;12.86;60.47
60642;BME280;46837;52.446;-1.930;2023-05-24T01:14:21;101250.88;;;12.90;60.37
60642;BME280;46837;52.446;-1.930;2023-05-24T01:16:11;101248.11;;;12.87;60.54
60642;BME280;46837;52.446;-1.930;2023-05-24T01:17:16;101248.12;;;12.88;60.50
60642;BME280;46837;52.446;-1.930;2023-05-24T01:18:16;101251.45;;;12.82;60.74
60642;BME280;46837;52.446;-1.930;2023-05-24T01:19:23;101251.34;;;12.76;60.90
60642;BME280;46837;52.446;-1.930;2023-05-24T01:20:10;101252.78;;;12.77;60.90
60642;BME280;46837;52.446;-1.930;2023-05-24T01:24:16;101257.47;;;12.72;61.24
60642;BME280;46837;52.446;-1.930;2023-05-24T01:26:17;101260.00;;;12.68;61.42
60642;BME280;46837;52.446;-1.930;2023-05-24T01:27:13;101259.30;;;12.68;61.35
60642;BME280;46837;52.446;-1.930;2023-05-24T01:28:09;101260.43;;;12.72;61.30
60642;BME280;46837;52.446;-1.930;2023-05-24T01:29:09;101257.03;;;12.71;61.31
60642;BME280;46837;52.446;-1.930;2023-05-24T01:30:09;101258.03;;;12.72;61.31
60642;BME280;46837;52.446;-1.930;2023-05-24T01:31:09;101253.23;;;12.74;61.29
60642;BME280;46837;52.446;-1.930;2023-05-24T01:32:09;101258.65;;;12.74;61.30
60642;BME280;46837;52.446;-1.930;2023-05-24T01:33:09;101258.05;;;12.75;61.38
60642;BME280;46837;52.446;-1.930;2023-05-24T01:34:09;101257.79;;;12.71;61.55
60642;BME280;46837;52.446;-1.930;2023-05-24T01:35:09;101258.65;;;12.73;61.47
60642;BME280;46837;52.446;-1.930;2023-05-24T01:36:09;101260.04;;;12.71;61.59
60642;BME280;46837;52.446;-1.930;2023-05-24T01:37:09;101260.63;;;12.73;61.53
60642;BME280;46837;52.446;-1.930;2023-05-24T01:38:09;101261.13;;;12.74;61.45
60642;BME280;46837;52.446;-1.930;2023-05-24T01:39:09;101260.84;;;12.73;61.53
60642;BME280;46837;52.446;-1.930;2023-05-24T01:40:09;101259.59;;;12.73;61.56
60642;BME280;46837;52.446;-1.930;2023-05-24T01:42:22;101262.41;;;12.67;61.88
60642;BME280;46837;52.446;-1.930;2023-05-24T01:48:15;101257.20;;;12.56;62.33
60642;BME280;46837;52.446;-1.930;2023-05-24T01:49:17;101255.08;;;12.54;62.33
60642;BME280;46837;52.446;-1.930;2023-05-24T01:51:09;101254.66;;;12.56;62.33
60642;BME280;46837;52.446;-1.930;2023-05-24T01:52:14;101251.93;;;12.57;62.25
60642;BME280;46837;52.446;-1.930;2023-05-24T01:53:12;101255.27;;;12.57;62.47
60642;BME280;46837;52.446;-1.930;2023-05-24T01:54:09;101255.70;;;12.57;62.47
60642;BME280;46837;52.446;-1.930;2023-05-24T01:55:09;101253.25;;;12.54;62.54
60642;BME280;46837;52.446;-1.930;2023-05-24T01:56:09;101254.41;;;12.54;62.58
60642;BME280;46837;52.446;-1.930;2023-05-24T01:57:09;101255.96;;;12.55;62.50
60642;BME280;46837;52.446;-1.930;2023-05-24T01:58:09;101255.33;;;12.53;62.61
60642;BME280;46837;52.446;-1.930;2023-05-24T01:59:09;101252.32;;;12.53;62.59
60642;BME280;46837;52.446;-1.930;2023-05-24T02:00:09;101253.89;;;12.51;62.71
60642;BME280;46837;52.446;-1.930;2023-05-24T02:01:09;101254.84;;;12.52;62.64
60642;BME280;46837;52.446;-1.930;2023-05-24T02:02:09;101256.30;;;12.51;62.77
60642;BME280;46837;52.446;-1.930;2023-05-24T02:03:09;101251.98;;;12.52;62.78
60642;BME280;46837;52.446;-1.930;2023-05-24T02:04:09;101255.54;;;12.53;62.71
60642;BME280;46837;52.446;-1.930;2023-05-24T02:05:09;101255.33;;;12.52;62.77
60642;BME280;46837;52.446;-1.930;2023-05-24T02:06:09;101253.80;;;12.53;62.74
60642;BME280;46837;52.446;-1.930;2023-05-24T02:07:09;101253.09;;;12.53;62.78
60642;BME280;46837;52.446;-1.930;2023-05-24T02:08:09;101253.07;;;12.48;62.99
60642;BME280;46837;52.446;-1.930;2023-05-24T02:09:09;101248.54;;;12.50;62.91
60642;BME280;46837;52.446;-1.930;2023-05-24T02:10:09;101251.20;;;12.47;63.04
60642;BME280;46837;52.446;-1.930;2023-05-24T02:11:09;101249.13;;;12.48;63.07
60642;BME280;46837;52.446;-1.930;2023-05-24T02:12:09;101249.39;;;12.47;63.06
60642;BME280;46837;52.446;-1.930;2023-05-24T02:13:09;101248.30;;;12.43;63.23
60642;BME280;46837;52.446;-1.930;2023-05-24T02:14:09;101248.07;;;12.43;63.29
60642;BME280;46837;52.446;-1.930;2023-05-24T02:15:09;101255.42;;;12.43;63.35
60642;BME280;46837;52.446;-1.930;2023-05-24T02:16:09;101256.63;;;12.39;63.49
60642;BME280;46837;52.446;-1.930;2023-05-24T02:17:09;101256.37;;;12.40;63.47
60642;BME280;46837;52.446;-1.930;2023-05-24T02:18:09;101258.82;;;12.39;63.57
60642;BME280;46837;52.446;-1.930;2023-05-24T02:19:09;101262.52;;;12.40;63.59
60642;BME280;46837;52.446;-1.930;2023-05-24T02:20:09;101258.79;;;12.40;63.59
60642;BME280;46837;52.446;-1.930;2023-05-24T02:21:09;101261.59;;;12.35;63.88
60642;BME280;46837;52.446;-1.930;2023-05-24T02:22:09;101267.33;;;12.35;63.91
60642;BME280;46837;52.446;-1.930;2023-05-24T02:23:09;101263.00;;;12.36;63.82
60642;BME280;46837;52.446;-1.930;2023-05-24T02:24:09;101265.82;;;12.37;63.86
60642;BME280;46837;52.446;-1.930;2023-05-24T02:25:09;101267.10;;;12.34;64.06
60642;BME280;46837;52.446;-1.930;2023-05-24T02:26:09;101269.27;;;12.37;63.96
60642;BME280;46837;52.446;-1.930;2023-05-24T02:27:09;101267.27;;;12.39;63.92
60642;BME280;46837;52.446;-1.930;2023-05-24T02:28:09;101270.87;;;12.41;63.93
60642;BME280;46837;52.446;-1.930;2023-05-24T02:29:09;101267.80;;;12.37;64.19
60642;BME280;46837;52.446;-1.930;2023-05-24T02:30:09;101268.88;;;12.40;64.10
60642;BME280;46837;52.446;-1.930;2023-05-24T02:31:09;101264.85;;;12.42;64.07
60642;BME280;46837;52.446;-1.930;2023-05-24T02:32:09;101265.95;;;12.42;64.09
60642;BME280;46837;52.446;-1.930;2023-05-24T02:33:09;101264.42;;;12.42;64.16
60642;BME280;46837;52.446;-1.930;2023-05-24T02:34:09;101268.04;;;12.42;64.23
60642;BME280;46837;52.446;-1.930;2023-05-24T02:35:09;101268.19;;;12.43;64.25
60642;BME280;46837;52.446;-1.930;2023-05-24T02:36:09;101265.33;;;12.41;64.29
60642;BME280;46837;52.446;-1.930;2023-05-24T02:37:09;101264.80;;;12.39;64.35
60642;BME280;46837;52.446;-1.930;2023-05-24T02:38:09;101262.09;;;12.41;64.34
60642;BME280;46837;52.446;-1.930;2023-05-24T02:39:09;101264.50;;;12.41;64.34
60642;BME280;46837;52.446;-1.930;2023-05-24T02:40:09;101267.83;;;12.40;64.36
60642;BME280;46837;52.446;-1.930;2023-05-24T02:41:09;101267.72;;;12.39;64.42
60642;BME280;46837;52.446;-1.930;2023-05-24T02:42:09;101271.79;;;12.36;64.44
60642;BME280;46837;52.446;-1.930;2023-05-24T02:43:09;101265.29;;;12.34;64.60
60642;BME280;46837;52.446;-1.930;2023-05-24T02:44:09;101268.05;;;12.31;64.72
60642;BME280;46837;52.446;-1.930;2023-05-24T02:45:09;101270.98;;;12.26;64.95
60642;BME280;46837;52.446;-1.930;2023-05-24T02:46:09;101266.49;;;12.26;65.03
60642;BME280;46837;52.446;-1.930;2023-05-24T02:47:09;101264.88;;;12.24;65.10
60642;BME280;46837;52.446;-1.930;2023-05-24T02:48:09;101268.32;;;12.23;65.24
60642;BME280;46837;52.446;-1.930;2023-05-24T02:49:09;101267.88;;;12.23;65.28
60642;BME280;46837;52.446;-1.930;2023-05-24T02:50:09;101272.71;;;12.23;65.21
60642;BME280;46837;52.446;-1.930;2023-05-24T02:51:09;101271.18;;;12.24;65.17
60642;BME280;46837;52.446;-1.930;2023-05-24T02:52:09;101268.68;;;12.25;65.13
60642;BME280;46837;52.446;-1.930;2023-05-24T02:53:09;101268.96;;;12.22;65.20
60642;BME280;46837;52.446;-1.930;2023-05-24T02:54:09;101271.10;;;12.22;65.29
60642;BME280;46837;52.446;-1.930;2023-05-24T02:55:09;101269.21;;;12.20;65.35
60642;BME280;46837;52.446;-1.930;2023-05-24T02:56:09;101272.27;;;12.20;65.32
60642;BME280;46837;52.446;-1.930;2023-05-24T02:57:10;101269.97;;;12.20;65.22
60642;BME280;46837;52.446;-1.930;2023-05-24T02:58:09;101271.60;;;12.19;65.19
60642;BME280;46837;52.446;-1.930;2023-05-24T02:59:09;101272.90;;;12.17;65.19
60642;BME280;46837;52.446;-1.930;2023-05-24T03:00:11;101272.44;;;12.16;65.14
60642;BME280;46837;52.446;-1.930;2023-05-24T03:01:11;101273.75;;;12.12;65.26
60642;BME280;46837;52.446;-1.930;2023-05-24T03:02:09;101271.82;;;12.10;65.21
60642;BME280;46837;52.446;-1.930;2023-05-24T03:03:09;101274.24;;;12.08;65.18
60642;BME280;46837;52.446;-1.930;2023-05-24T03:04:09;101268.47;;;12.10;65.09
60642;BME280;46837;52.446;-1.930;2023-05-24T03:05:09;101269.48;;;12.04;65.09
60642;BME280;46837;52.446;-1.930;2023-05-24T03:06:09;101269.84;;;12.02;65.19
60642;BME280;46837;52.446;-1.930;2023-05-24T03:07:09;101269.86;;;12.00;65.25
60642;BME280;46837;52.446;-1.930;2023-05-24T03:08:09;101271.36;;;11.98;65.24
60642;BME280;46837;52.446;-1.930;2023-05-24T03:09:09;101270.75;;;11.94;65.28
60642;BME280;46837;52.446;-1.930;2023-05-24T03:10:09;101274.15;;;11.90;65.33
60642;BME280;46837;52.446;-1.930;2023-05-24T03:11:09;101273.39;;;11.84;65.45
60642;BME280;46837;52.446;-1.930;2023-05-24T03:12:09;101271.29;;;11.86;65.42
60642;BME280;46837;52.446;-1.930;2023-05-24T03:13:09;101271.66;;;11.85;65.38
60642;BME280;46837;52.446;-1.930;2023-05-24T03:14:09;101267.81;;;11.84;65.36
60642;BME280;46837;52.446;-1.930;2023-05-24T03:15:09;101270.01;;;11.85;65.37
60642;BME280;46837;52.446;-1.930;2023-05-24T03:16:09;101268.13;;;11.82;65.35
60642;BME280;46837;52.446;-1.930;2023-05-24T03:17:09;101268.59;;;11.70;65.73
60642;BME280;46837;52.446;-1.930;2023-05-24T03:18:09;101272.10;;;11.67;65.86
60642;BME280;46837;52.446;-1.930;2023-05-24T03:19:09;101275.68;;;11.68;65.82
60642;BME280;46837;52.446;-1.930;2023-05-24T03:20:09;101275.40;;;11.64;65.88
60642;BME280;46837;52.446;-1.930;2023-05-24T03:21:09;101274.36;;;11.61;65.99
60642;BME280;46837;52.446;-1.930;2023-05-24T03:22:09;101273.54;;;11.61;65.98
60642;BME280;46837;52.446;-1.930;2023-05-24T03:23:09;101272.92;;;11.53;66.16
60642;BME280;46837;52.446;-1.930;2023-05-24T03:24:09;101269.16;;;11.55;66.19
60642;BME280;46837;52.446;-1.930;2023-05-24T03:25:10;101271.04;;;11.58;66.07
60642;BME280;46837;52.446;-1.930;2023-05-24T03:26:09;101272.26;;;11.59;66.00
60642;BME280;46837;52.446;-1.930;2023-05-24T03:27:09;101270.54;;;11.58;66.04
60642;BME280;46837;52.446;-1.930;2023-05-24T03:28:09;101274.98;;;11.55;66.17
60642;BME280;46837;52.446;-1.930;2023-05-24T03:29:09;101273.90;;;11.50;66.36
60642;BME280;46837;52.446;-1.930;2023-05-24T03:30:09;101275.43;;;11.53;66.29
60642;BME280;46837;52.446;-1.930;2023-05-24T03:31:09;101275.89;;;11.50;66.32
60642;BME280;46837;52.446;-1.930;2023-05-24T03:32:09;101272.69;;;11.53;66.24
60642;BME280;46837;52.446;-1.930;2023-05-24T03:33:09;101270.77;;;11.52;66.24
60642;BME280;46837;52.446;-1.930;2023-05-24T03:34:09;101265.64;;;11.53;66.21
60642;BME280;46837;52.446;-1.930;2023-05-24T03:35:09;101269.38;;;11.48;66.32
60642;BME280;46837;52.446;-1.930;2023-05-24T03:36:10;101268.28;;;11.48;66.28
60642;BME280;46837;52.446;-1.930;2023-05-24T03:37:09;101267.37;;;11.51;66.22
60642;BME280;46837;52.446;-1.930;2023-05-24T03:38:09;101265.22;;;11.51;66.11
60642;BME280;46837;52.446;-1.930;2023-05-24T03:39:09;101260.27;;;11.50;66.15
60642;BME280;46837;52.446;-1.930;2023-05-24T03:40:09;101265.00;;;11.51;66.17
60642;BME280;46837;52.446;-1.930;2023-05-24T03:41:09;101266.02;;;11.53;66.03
60642;BME280;46837;52.446;-1.930;2023-05-24T03:42:09;101259.29;;;11.50;66.10
60642;BME280;46837;52.446;-1.930;2023-05-24T03:43:09;101263.23;;;11.50;66.21
60642;BME280;46837;52.446;-1.930;2023-05-24T03:44:09;101261.77;;;11.50;66.13
60642;BME280;46837;52.446;-1.930;2023-05-24T03:45:09;101260.75;;;11.52;66.11
60642;BME280;46837;52.446;-1.930;2023-05-24T03:46:09;101263.16;;;11.49;66.22
60642;BME280;46837;52.446;-1.930;2023-05-24T03:47:09;101261.01;;;11.47;66.32
60642;BME280;46837;52.446;-1.930;2023-05-24T03:48:09;101260.58;;;11.49;66.29
60642;BME280;46837;52.446;-1.930;2023-05-24T03:49:09;101259.46;;;11.48;66.23
60642;BME280;46837;52.446;-1.930;2023-05-24T03:50:09;101259.32;;;11.49;66.28
60642;BME280;46837;52.446;-1.930;2023-05-24T03:51:09;101256.33;;;11.50;66.17
60642;BME280;46837;52.446;-1.930;2023-05-24T03:52:09;101257.07;;;11.42;66.37
60642;BME280;46837;52.446;-1.930;2023-05-24T03:53:09;101257.09;;;11.39;66.55
60642;BME280;46837;52.446;-1.930;2023-05-24T03:54:09;101256.61;;;11.37;66.56
60642;BME280;46837;52.446;-1.930;2023-05-24T03:55:09;101257.37;;;11.34;66.63
60642;BME280;46837;52.446;-1.930;2023-05-24T03:56:09;101260.78;;;11.31;66.82
60642;BME280;46837;52.446;-1.930;2023-05-24T03:57:09;101257.11;;;11.31;66.85
60642;BME280;46837;52.446;-1.930;2023-05-24T03:58:09;101258.23;;;11.29;66.90
60642;BME280;46837;52.446;-1.930;2023-05-24T03:59:09;101255.62;;;11.30;66.81
60642;BME280;46837;52.446;-1.930;2023-05-24T04:00:09;101254.24;;;11.27;66.91
60642;BME280;46837;52.446;-1.930;2023-05-24T04:01:09;101251.43;;;11.29;66.92
60642;BME280;46837;52.446;-1.930;2023-05-24T04:02:09;101254.85;;;11.27;66.91
60642;BME280;46837;52.446;-1.930;2023-05-24T04:03:09;101255.83;;;11.27;67.00
60642;BME280;46837;52.446;-1.930;2023-05-24T04:04:09;101255.54;;;11.17;67.43
60642;BME280;46837;52.446;-1.930;2023-05-24T04:05:12;101253.03;;;11.17;67.37
60642;BME280;46837;52.446;-1.930;2023-05-24T04:06:09;101251.06;;;11.17;67.34
60642;BME280;46837;52.446;-1.930;2023-05-24T04:07:09;101254.04;;;11.15;67.39
60642;BME280;46837;52.446;-1.930;2023-05-24T04:08:09;101251.02;;;11.15;67.51
60642;BME280;46837;52.446;-1.930;2023-05-24T04:09:09;101253.84;;;11.13;67.50
60642;BME280;46837;52.446;-1.930;2023-05-24T04:10:09;101254.15;;;11.12;67.66
60642;BME280;46837;52.446;-1.930;2023-05-24T04:11:09;101255.69;;;11.12;67.56
60642;BME280;46837;52.446;-1.930;2023-05-24T04:12:09;101260.77;;;11.10;67.71
60642;BME280;46837;52.446;-1.930;2023-05-24T04:13:09;101258.85;;;11.09;67.70
60642;BME280;46837;52.446;-1.930;2023-05-24T04:14:09;101258.50;;;11.08;67.74
60642;BME280;46837;52.446;-1.930;2023-05-24T04:15:09;101253.58;;;11.02;67.97
60642;BME280;46837;52.446;-1.930;2023-05-24T04:16:09;101256.86;;;11.02;67.99
60642;BME280;46837;52.446;-1.930;2023-05-24T04:17:09;101257.55;;;11.04;67.95
60642;BME280;46837;52.446;-1.930;2023-05-24T04:18:09;101254.64;;;11.00;68.09
60642;BME280;46837;52.446;-1.930;2023-05-24T04:19:09;101252.00;;;10.99;68.20
60642;BME280;46837;52.446;-1.930;2023-05-24T04:20:09;101247.96;;;11.00;68.20
60642;BME280;46837;52.446;-1.930;2023-05-24T04:21:09;101250.02;;;11.05;68.10
60642;BME280;46837;52.446;-1.930;2023-05-24T04:22:09;101253.78;;;11.04;68.06
60642;BME280;46837;52.446;-1.930;2023-05-24T04:23:09;101249.80;;;11.08;67.96
60642;BME280;46837;52.446;-1.930;2023-05-24T04:24:09;101251.50;;;11.07;68.00
60642;BME280;46837;52.446;-1.930;2023-05-24T04:25:09;101253.66;;;11.06;68.03
60642;BME280;46837;52.446;-1.930;2023-05-24T04:26:09;101254.93;;;11.10;67.97
60642;BME280;46837;52.446;-1.930;2023-05-24T04:27:09;101259.66;;;11.11;67.96
60642;BME280;46837;52.446;-1.930;2023-05-24T04:28:09;101263.57;;;11.12;67.96
60642;BME280;46837;52.446;-1.930;2023-05-24T04:29:09;101263.37;;;11.11;68.12
60642;BME280;46837;52.446;-1.930;2023-05-24T04:30:09;101260.23;;;11.15;68.02
60642;BME280;46837;52.446;-1.930;2023-05-24T04:31:09;101261.10;;;11.15;67.99
60642;BME280;46837;52.446;-1.930;2023-05-24T04:32:09;101263.13;;;11.18;68.01
60642;BME280;46837;52.446;-1.930;2023-05-24T04:33:09;101267.39;;;11.13;68.23
60642;BME280;46837;52.446;-1.930;2023-05-24T04:34:09;101260.45;;;11.16;68.21
60642;BME280;46837;52.446;-1.930;2023-05-24T04:35:11;101263.59;;;11.17;68.16
60642;BME280;46837;52.446;-1.930;2023-05-24T04:36:09;101262.11;;;11.14;68.25
60642;BME280;46837;52.446;-1.930;2023-05-24T04:37:09;101261.13;;;11.14;68.38
60642;BME280;46837;52.446;-1.930;2023-05-24T04:38:09;101259.95;;;11.16;68.33
60642;BME280;46837;52.446;-1.930;2023-05-24T04:39:09;101255.26;;;11.17;68.39
60642;BME280;46837;52.446;-1.930;2023-05-24T04:40:09;101258.61;;;11.17;68.52
60642;BME280;46837;52.446;-1.930;2023-05-24T04:41:09;101259.31;;;11.20;68.40
60642;BME280;46837;52.446;-1.930;2023-05-24T04:42:09;101257.92;;;11.21;68.36
60642;BME280;46837;52.446;-1.930;2023-05-24T04:43:09;101258.45;;;11.22;68.36
60642;BME280;46837;52.446;-1.930;2023-05-24T04:44:09;101255.98;;;11.22;68.45
60642;BME280;46837;52.446;-1.930;2023-05-24T04:45:09;101258.03;;;11.27;68.35
60642;BME280;46837;52.446;-1.930;2023-05-24T04:46:09;101254.24;;;11.27;68.37
60642;BME280;46837;52.446;-1.930;2023-05-24T04:47:09;101253.42;;;11.29;68.26
60642;BME280;46837;52.446;-1.930;2023-05-24T04:48:09;101256.59;;;11.30;68.32
60642;BME280;46837;52.446;-1.930;2023-05-24T04:49:10;101256.27;;;11.30;68.40
60642;BME280;46837;52.446;-1.930;2023-05-24T04:50:09;101256.71;;;11.30;68.43
60642;BME280;46837;52.446;-1.930;2023-05-24T04:51:09;101259.50;;;11.33;68.37
60642;BME280;46837;52.446;-1.930;2023-05-24T04:52:09;101260.11;;;11.34;68.35
60642;BME280;46837;52.446;-1.930;2023-05-24T04:53:09;101258.91;;;11.31;68.38
60642;BME280;46837;52.446;-1.930;2023-05-24T04:54:10;101261.15;;;11.28;68.57
60642;BME280;46837;52.446;-1.930;2023-05-24T04:55:09;101258.84;;;11.29;68.51
60642;BME280;46837;52.446;-1.930;2023-05-24T04:56:09;101260.95;;;11.31;68.49
60642;BME280;46837;52.446;-1.930;2023-05-24T04:57:09;101259.68;;;11.31;68.52
60642;BME280;46837;52.446;-1.930;2023-05-24T04:58:09;101257.93;;;11.33;68.41
60642;BME280;46837;52.446;-1.930;2023-05-24T04:59:09;101257.79;;;11.32;68.45
60642;BME280;46837;52.446;-1.930;2023-05-24T05:00:09;101255.69;;;11.31;68.53
60642;BME280;46837;52.446;-1.930;2023-05-24T05:01:09;101257.25;;;11.33;68.54
60642;BME280;46837;52.446;-1.930;2023-05-24T05:02:09;101261.74;;;11.36;68.48
60642;BME280;46837;52.446;-1.930;2023-05-24T05:03:09;101257.93;;;11.33;68.58
60642;BME280;46837;52.446;-1.930;2023-05-24T05:04:09;101256.22;;;11.33;68.64
60642;BME280;46837;52.446;-1.930;2023-05-24T05:05:09;101257.49;;;11.37;68.61
60642;BME280;46837;52.446;-1.930;2023-05-24T05:06:09;101258.80;;;11.34;68.78
60642;BME280;46837;52.446;-1.930;2023-05-24T05:07:09;101258.90;;;11.34;68.82
60642;BME280;46837;52.446;-1.930;2023-05-24T05:08:09;101258.05;;;11.35;68.86
60642;BME280;46837;52.446;-1.930;2023-05-24T05:09:11;101260.01;;;11.38;68.82
60642;BME280;46837;52.446;-1.930;2023-05-24T05:10:09;101258.91;;;11.37;68.75
60642;BME280;46837;52.446;-1.930;2023-05-24T05:11:09;101260.17;;;11.37;68.83
60642;BME280;46837;52.446;-1.930;2023-05-24T05:12:09;101264.09;;;11.36;68.89
60642;BME280;46837;52.446;-1.930;2023-05-24T05:13:09;101266.30;;;11.34;69.00
60642;BME280;46837;52.446;-1.930;2023-05-24T05:14:09;101264.57;;;11.39;68.84
60642;BME280;46837;52.446;-1.930;2023-05-24T05:15:09;101263.95;;;11.38;68.78
60642;BME280;46837;52.446;-1.930;2023-05-24T05:16:09;101263.78;;;11.38;68.78
60642;BME280;46837;52.446;-1.930;2023-05-24T05:17:09;101262.54;;;11.38;68.77
60642;BME280;46837;52.446;-1.930;2023-05-24T05:18:09;101263.90;;;11.40;68.77
60642;BME280;46837;52.446;-1.930;2023-05-24T05:19:09;101269.33;;;11.44;68.66
60642;BME280;46837;52.446;-1.930;2023-05-24T05:20:09;101268.00;;;11.47;68.64
60642;BME280;46837;52.446;-1.930;2023-05-24T05:21:09;101272.62;;;11.49;68.61
60642;BME280;46837;52.446;-1.930;2023-05-24T05:22:09;101270.14;;;11.51;68.55
60642;BME280;46837;52.446;-1.930;2023-05-24T05:23:09;101269.60;;;11.51;68.60
60642;BME280;46837;52.446;-1.930;2023-05-24T05:24:09;101272.16;;;11.54;68.56
60642;BME280;46837;52.446;-1.930;2023-05-24T05:25:09;101270.43;;;11.58;68.49